Northern Maine Regional Airport at Presque Isle

Airport
ICAO code: 
KPQI
Summary
ICAO Region: 
NAM
Territory: 
Location: 
Presque Isle, Maine,
Coordinates: 
Aerial View: 
46° 41' 29.51" N, 68° 2' 33.51" W
Airport CFIT: 
Altimeter Temperature Error Correction
Airport WX: 
Cumulonimbus
Metar
Observation
KPQI 020756Z AUTO 00000KT 10SM OVC120 M09/M11 A3005 RMK AO2 SLP210 T10941106
Station
Presque Isle
Date/Time
2021-12-02 07:56:00
Wind direction
Wind speed
00 kts
Lowest cloud amount
overcast
Temperature
-9.4°C
Dew point
-10.6°C
Humidity
90%
Weather condition
n/a

Description

Northern Maine Regional Airport at Presque Isle is a public use airport located 2 km northwest of the central business district of Presque Isle, a city in Aroostook County, Maine.

Climatology

Humid Continental climate (Köppen climate classification Dfb) - Variable weather patterns and a large seasonal temperature variance. Summers are often warm and humid with frequent thunderstorms and winters can be very cold with frequent snowfall and persistent snow cover.

Runways

Designator Length Width Surface Rops
10/28 1827 46 ASP Yes/Yes
1/19 2268 46 ASP Yes/Yes
Airport map: 
Aerial View: 

SKYbrary Partners:

Safety knowledge contributed by: